sensor_id;sensor_type;location;lat;lon;timestamp;P1;durP1;ratioP1;P2;durP2;ratioP2
53710;SDS011;39605;52.704;6.752;2023-05-10T00:02:13;13.23;;;12.32;;
53710;SDS011;39605;52.704;6.752;2023-05-10T00:04:39;13.02;;;12.25;;
53710;SDS011;39605;52.704;6.752;2023-05-10T00:07:05;11.77;;;11.02;;
53710;SDS011;39605;52.704;6.752;2023-05-10T00:09:31;11.75;;;10.55;;
53710;SDS011;39605;52.704;6.752;2023-05-10T00:11:58;12.48;;;11.52;;
53710;SDS011;39605;52.704;6.752;2023-05-10T00:14:26;11.32;;;10.60;;
53710;SDS011;39605;52.704;6.752;2023-05-10T00:16:52;12.52;;;11.48;;
53710;SDS011;39605;52.704;6.752;2023-05-10T00:19:26;10.93;;;10.25;;
53710;SDS011;39605;52.704;6.752;2023-05-10T00:21:52;12.05;;;11.23;;
53710;SDS011;39605;52.704;6.752;2023-05-10T00:24:18;11.95;;;11.02;;
53710;SDS011;39605;52.704;6.752;2023-05-10T00:26:44;11.77;;;11.07;;
53710;SDS011;39605;52.704;6.752;2023-05-10T00:29:10;14.00;;;13.10;;
53710;SDS011;39605;52.704;6.752;2023-05-10T00:31:36;12.77;;;11.88;;
53710;SDS011;39605;52.704;6.752;2023-05-10T00:34:02;14.00;;;12.90;;
53710;SDS011;39605;52.704;6.752;2023-05-10T00:36:28;14.32;;;13.27;;
53710;SDS011;39605;52.704;6.752;2023-05-10T00:38:56;13.68;;;12.68;;
53710;SDS011;39605;52.704;6.752;2023-05-10T00:41:23;15.05;;;13.95;;
53710;SDS011;39605;52.704;6.752;2023-05-10T00:43:49;15.65;;;14.45;;
53710;SDS011;39605;52.704;6.752;2023-05-10T00:46:17;17.40;;;15.88;;
53710;SDS011;39605;52.704;6.752;2023-05-10T00:48:43;16.05;;;14.85;;
53710;SDS011;39605;52.704;6.752;2023-05-10T00:51:10;15.00;;;13.85;;
53710;SDS011;39605;52.704;6.752;2023-05-10T00:53:36;14.90;;;13.80;;
53710;SDS011;39605;52.704;6.752;2023-05-10T00:56:02;16.67;;;15.43;;
53710;SDS011;39605;52.704;6.752;2023-05-10T00:58:29;16.63;;;15.30;;
53710;SDS011;39605;52.704;6.752;2023-05-10T01:00:56;17.38;;;15.70;;
53710;SDS011;39605;52.704;6.752;2023-05-10T01:03:22;17.35;;;15.95;;
53710;SDS011;39605;52.704;6.752;2023-05-10T01:05:48;16.13;;;14.90;;
53710;SDS011;39605;52.704;6.752;2023-05-10T01:08:14;18.38;;;16.88;;
53710;SDS011;39605;52.704;6.752;2023-05-10T01:10:43;19.55;;;17.75;;
53710;SDS011;39605;52.704;6.752;2023-05-10T01:13:13;16.65;;;15.30;;
53710;SDS011;39605;52.704;6.752;2023-05-10T01:15:39;16.73;;;15.43;;
53710;SDS011;39605;52.704;6.752;2023-05-10T01:18:06;17.58;;;16.17;;
53710;SDS011;39605;52.704;6.752;2023-05-10T01:20:35;17.20;;;15.90;;
53710;SDS011;39605;52.704;6.752;2023-05-10T01:28:16;17.60;;;16.30;;
53710;SDS011;39605;52.704;6.752;2023-05-10T01:38:22;18.10;;;16.60;;
53710;SDS011;39605;52.704;6.752;2023-05-10T01:41:01;18.38;;;16.77;;
53710;SDS011;39605;52.704;6.752;2023-05-10T01:43:37;15.63;;;14.43;;
53710;SDS011;39605;52.704;6.752;2023-05-10T01:46:10;17.27;;;15.95;;
53710;SDS011;39605;52.704;6.752;2023-05-10T01:48:41;16.50;;;15.20;;
53710;SDS011;39605;52.704;6.752;2023-05-10T01:51:12;20.08;;;17.67;;
53710;SDS011;39605;52.704;6.752;2023-05-10T01:53:39;17.42;;;16.02;;
53710;SDS011;39605;52.704;6.752;2023-05-10T01:56:06;16.30;;;14.93;;
53710;SDS011;39605;52.704;6.752;2023-05-10T01:58:35;20.90;;;18.63;;
53710;SDS011;39605;52.704;6.752;2023-05-10T02:01:05;16.75;;;15.32;;
53710;SDS011;39605;52.704;6.752;2023-05-10T02:03:31;15.90;;;14.63;;
53710;SDS011;39605;52.704;6.752;2023-05-10T02:05:58;16.27;;;14.77;;
53710;SDS011;39605;52.704;6.752;2023-05-10T02:08:24;16.02;;;14.73;;
53710;SDS011;39605;52.704;6.752;2023-05-10T02:10:55;16.80;;;15.40;;
53710;SDS011;39605;52.704;6.752;2023-05-10T02:13:22;16.05;;;14.75;;
53710;SDS011;39605;52.704;6.752;2023-05-10T02:15:49;15.88;;;14.57;;
53710;SDS011;39605;52.704;6.752;2023-05-10T02:18:16;18.02;;;16.30;;
53710;SDS011;39605;52.704;6.752;2023-05-10T02:20:43;16.15;;;14.75;;
53710;SDS011;39605;52.704;6.752;2023-05-10T02:23:10;15.25;;;13.85;;
53710;SDS011;39605;52.704;6.752;2023-05-10T02:25:39;13.98;;;12.77;;
53710;SDS011;39605;52.704;6.752;2023-05-10T02:28:06;13.10;;;12.05;;
53710;SDS011;39605;52.704;6.752;2023-05-10T02:30:33;17.30;;;15.13;;
53710;SDS011;39605;52.704;6.752;2023-05-10T02:33:00;14.07;;;12.98;;
53710;SDS011;39605;52.704;6.752;2023-05-10T02:35:28;13.48;;;12.38;;
53710;SDS011;39605;52.704;6.752;2023-05-10T02:37:57;14.27;;;13.00;;
53710;SDS011;39605;52.704;6.752;2023-05-10T02:40:24;14.10;;;12.90;;
53710;SDS011;39605;52.704;6.752;2023-05-10T02:42:54;13.68;;;12.57;;
53710;SDS011;39605;52.704;6.752;2023-05-10T02:45:24;17.30;;;14.70;;
53710;SDS011;39605;52.704;6.752;2023-05-10T02:48:00;14.85;;;13.40;;
53710;SDS011;39605;52.704;6.752;2023-05-10T02:50:27;13.43;;;12.30;;
53710;SDS011;39605;52.704;6.752;2023-05-10T02:52:59;13.80;;;12.20;;
53710;SDS011;39605;52.704;6.752;2023-05-10T02:55:28;17.15;;;14.52;;
53710;SDS011;39605;52.704;6.752;2023-05-10T02:58:01;15.30;;;13.52;;
53710;SDS011;39605;52.704;6.752;2023-05-10T03:00:28;14.88;;;13.45;;
53710;SDS011;39605;52.704;6.752;2023-05-10T03:02:54;14.15;;;12.80;;
53710;SDS011;39605;52.704;6.752;2023-05-10T03:05:23;14.32;;;13.13;;
53710;SDS011;39605;52.704;6.752;2023-05-10T03:07:49;15.38;;;13.40;;
53710;SDS011;39605;52.704;6.752;2023-05-10T03:10:18;13.18;;;11.98;;
53710;SDS011;39605;52.704;6.752;2023-05-10T03:18:18;12.90;;;11.93;;
53710;SDS011;39605;52.704;6.752;2023-05-10T03:20:50;12.25;;;11.23;;
53710;SDS011;39605;52.704;6.752;2023-05-10T03:25:49;12.98;;;11.82;;
53710;SDS011;39605;52.704;6.752;2023-05-10T03:28:16;11.25;;;10.35;;
53710;SDS011;39605;52.704;6.752;2023-05-10T03:30:43;10.07;;;9.25;;
53710;SDS011;39605;52.704;6.752;2023-05-10T03:33:16;9.63;;;8.82;;
53710;SDS011;39605;52.704;6.752;2023-05-10T03:35:45;10.13;;;9.23;;
53710;SDS011;39605;52.704;6.752;2023-05-10T03:38:14;8.95;;;8.35;;
53710;SDS011;39605;52.704;6.752;2023-05-10T03:40:42;8.43;;;7.82;;
53710;SDS011;39605;52.704;6.752;2023-05-10T03:43:11;8.65;;;7.88;;
53710;SDS011;39605;52.704;6.752;2023-05-10T03:45:37;11.13;;;10.13;;
53710;SDS011;39605;52.704;6.752;2023-05-10T03:48:04;10.05;;;9.25;;
53710;SDS011;39605;52.704;6.752;2023-05-10T03:50:30;12.07;;;10.63;;
53710;SDS011;39605;52.704;6.752;2023-05-10T03:52:58;10.75;;;9.68;;
53710;SDS011;39605;52.704;6.752;2023-05-10T03:55:24;9.32;;;8.60;;
53710;SDS011;39605;52.704;6.752;2023-05-10T03:57:51;9.20;;;8.50;;
53710;SDS011;39605;52.704;6.752;2023-05-10T04:00:21;9.32;;;8.63;;
53710;SDS011;39605;52.704;6.752;2023-05-10T04:02:50;9.48;;;8.80;;
53710;SDS011;39605;52.704;6.752;2023-05-10T04:05:19;8.63;;;7.93;;
53710;SDS011;39605;52.704;6.752;2023-05-10T04:07:47;9.75;;;8.95;;
53710;SDS011;39605;52.704;6.752;2023-05-10T04:10:17;8.75;;;8.05;;
53710;SDS011;39605;52.704;6.752;2023-05-10T04:12:48;9.32;;;8.43;;
53710;SDS011;39605;52.704;6.752;2023-05-10T04:15:14;9.15;;;8.35;;
53710;SDS011;39605;52.704;6.752;2023-05-10T04:17:43;9.60;;;8.80;;
53710;SDS011;39605;52.704;6.752;2023-05-10T04:20:09;8.18;;;7.57;;
53710;SDS011;39605;52.704;6.752;2023-05-10T04:22:36;9.70;;;8.90;;
53710;SDS011;39605;52.704;6.752;2023-05-10T04:25:06;8.95;;;8.23;;
53710;SDS011;39605;52.704;6.752;2023-05-10T04:27:35;10.55;;;9.65;;
53710;SDS011;39605;52.704;6.752;2023-05-10T04:30:04;11.60;;;10.48;;
53710;SDS011;39605;52.704;6.752;2023-05-10T04:32:33;11.18;;;10.07;;
53710;SDS011;39605;52.704;6.752;2023-05-10T04:34:59;10.60;;;9.63;;
53710;SDS011;39605;52.704;6.752;2023-05-10T04:37:30;10.63;;;9.73;;
53710;SDS011;39605;52.704;6.752;2023-05-10T04:39:56;10.60;;;9.70;;
53710;SDS011;39605;52.704;6.752;2023-05-10T04:42:27;11.10;;;10.02;;
53710;SDS011;39605;52.704;6.752;2023-05-10T04:44:53;10.20;;;9.23;;
53710;SDS011;39605;52.704;6.752;2023-05-10T04:47:22;10.75;;;9.75;;
53710;SDS011;39605;52.704;6.752;2023-05-10T04:49:50;9.50;;;8.77;;
53710;SDS011;39605;52.704;6.752;2023-05-10T04:52:16;8.68;;;7.90;;
53710;SDS011;39605;52.704;6.752;2023-05-10T04:54:43;9.05;;;8.20;;
53710;SDS011;39605;52.704;6.752;2023-05-10T04:57:11;9.23;;;8.35;;
53710;SDS011;39605;52.704;6.752;2023-05-10T04:59:38;8.95;;;8.15;;
53710;SDS011;39605;52.704;6.752;2023-05-10T05:02:04;9.10;;;8.23;;
53710;SDS011;39605;52.704;6.752;2023-05-10T05:04:30;8.52;;;7.72;;
53710;SDS011;39605;52.704;6.752;2023-05-10T05:07:00;8.82;;;7.95;;
53710;SDS011;39605;52.704;6.752;2023-05-10T05:09:31;8.52;;;7.40;;
53710;SDS011;39605;52.704;6.752;2023-05-10T05:11:57;8.85;;;7.97;;
53710;SDS011;39605;52.704;6.752;2023-05-10T05:14:23;7.85;;;7.13;;
53710;SDS011;39605;52.704;6.752;2023-05-10T05:16:52;8.15;;;7.20;;
53710;SDS011;39605;52.704;6.752;2023-05-10T05:19:19;8.30;;;7.50;;
53710;SDS011;39605;52.704;6.752;2023-05-10T05:21:45;10.35;;;7.32;;
53710;SDS011;39605;52.704;6.752;2023-05-10T05:24:11;7.80;;;6.90;;
53710;SDS011;39605;52.704;6.752;2023-05-10T05:26:55;7.30;;;6.63;;
53710;SDS011;39605;52.704;6.752;2023-05-10T05:29:28;9.27;;;6.68;;
53710;SDS011;39605;52.704;6.752;2023-05-10T05:31:54;7.50;;;6.80;;
53710;SDS011;39605;52.704;6.752;2023-05-10T05:34:21;7.45;;;6.70;;
53710;SDS011;39605;52.704;6.752;2023-05-10T05:36:47;7.85;;;6.72;;
53710;SDS011;39605;52.704;6.752;2023-05-10T05:39:13;7.32;;;6.63;;
53710;SDS011;39605;52.704;6.752;2023-05-10T05:41:39;8.50;;;7.30;;
53710;SDS011;39605;52.704;6.752;2023-05-10T05:44:06;7.75;;;6.95;;
53710;SDS011;39605;52.704;6.752;2023-05-10T05:46:32;7.75;;;7.10;;
53710;SDS011;39605;52.704;6.752;2023-05-10T05:48:58;10.75;;;7.15;;
53710;SDS011;39605;52.704;6.752;2023-05-10T05:51:26;7.85;;;6.70;;
53710;SDS011;39605;52.704;6.752;2023-05-10T05:53:55;9.25;;;6.75;;
53710;SDS011;39605;52.704;6.752;2023-05-10T05:56:23;10.40;;;7.40;;
53710;SDS011;39605;52.704;6.752;2023-05-10T05:58:50;6.97;;;6.25;;
53710;SDS011;39605;52.704;6.752;2023-05-10T06:01:16;7.05;;;6.45;;
53710;SDS011;39605;52.704;6.752;2023-05-10T06:03:42;7.75;;;6.05;;
53710;SDS011;39605;52.704;6.752;2023-05-10T06:06:08;7.28;;;6.63;;
53710;SDS011;39605;52.704;6.752;2023-05-10T06:08:37;6.93;;;6.25;;
53710;SDS011;39605;52.704;6.752;2023-05-10T06:11:03;7.45;;;6.70;;
53710;SDS011;39605;52.704;6.752;2023-05-10T06:13:29;7.88;;;7.07;;
53710;SDS011;39605;52.704;6.752;2023-05-10T06:15:59;7.28;;;6.57;;
53710;SDS011;39605;52.704;6.752;2023-05-10T06:18:26;8.55;;;7.75;;
53710;SDS011;39605;52.704;6.752;2023-05-10T06:20:52;9.20;;;8.27;;
53710;SDS011;39605;52.704;6.752;2023-05-10T06:23:18;8.80;;;7.90;;
53710;SDS011;39605;52.704;6.752;2023-05-10T06:25:44;8.18;;;7.47;;
53710;SDS011;39605;52.704;6.752;2023-05-10T06:28:15;8.43;;;7.63;;
53710;SDS011;39605;52.704;6.752;2023-05-10T06:30:41;8.60;;;7.15;;
53710;SDS011;39605;52.704;6.752;2023-05-10T06:33:08;8.57;;;7.78;;
53710;SDS011;39605;52.704;6.752;2023-05-10T06:35:41;10.48;;;7.97;;
53710;SDS011;39605;52.704;6.752;2023-05-10T06:38:10;8.18;;;7.50;;
53710;SDS011;39605;52.704;6.752;2023-05-10T06:40:36;7.45;;;6.53;;
53710;SDS011;39605;52.704;6.752;2023-05-10T06:43:06;8.65;;;7.88;;
53710;SDS011;39605;52.704;6.752;2023-05-10T06:45:37;8.38;;;7.65;;
53710;SDS011;39605;52.704;6.752;2023-05-10T06:48:06;7.20;;;6.68;;
53710;SDS011;39605;52.704;6.752;2023-05-10T06:50:32;7.75;;;7.05;;
53710;SDS011;39605;52.704;6.752;2023-05-10T06:53:01;9.82;;;7.43;;
53710;SDS011;39605;52.704;6.752;2023-05-10T06:55:28;7.18;;;6.55;;
53710;SDS011;39605;52.704;6.752;2023-05-10T06:57:54;6.78;;;6.25;;
53710;SDS011;39605;52.704;6.752;2023-05-10T07:00:23;7.25;;;6.65;;
53710;SDS011;39605;52.704;6.752;2023-05-10T07:02:49;8.05;;;6.00;;
53710;SDS011;39605;52.704;6.752;2023-05-10T07:05:18;5.35;;;4.93;;
53710;SDS011;39605;52.704;6.752;2023-05-10T07:07:45;5.13;;;4.72;;
53710;SDS011;39605;52.704;6.752;2023-05-10T07:10:11;5.68;;;5.10;;
53710;SDS011;39605;52.704;6.752;2023-05-10T07:12:37;5.05;;;4.63;;
53710;SDS011;39605;52.704;6.752;2023-05-10T07:15:03;5.95;;;5.38;;
53710;SDS011;39605;52.704;6.752;2023-05-10T07:17:29;5.45;;;4.95;;
53710;SDS011;39605;52.704;6.752;2023-05-10T07:19:56;5.90;;;5.30;;
53710;SDS011;39605;52.704;6.752;2023-05-10T07:22:22;6.20;;;5.57;;
53710;SDS011;39605;52.704;6.752;2023-05-10T07:24:48;6.47;;;5.65;;
53710;SDS011;39605;52.704;6.752;2023-05-10T07:27:14;6.78;;;5.97;;
53710;SDS011;39605;52.704;6.752;2023-05-10T07:29:40;7.70;;;7.00;;
53710;SDS011;39605;52.704;6.752;2023-05-10T07:32:06;6.43;;;5.82;;
53710;SDS011;39605;52.704;6.752;2023-05-10T07:34:32;6.25;;;5.60;;
53710;SDS011;39605;52.704;6.752;2023-05-10T07:36:58;5.88;;;4.68;;
53710;SDS011;39605;52.704;6.752;2023-05-10T07:39:25;7.80;;;5.60;;
53710;SDS011;39605;52.704;6.752;2023-05-10T07:41:51;5.90;;;5.47;;
53710;SDS011;39605;52.704;6.752;2023-05-10T07:44:17;6.82;;;6.22;;
53710;SDS011;39605;52.704;6.752;2023-05-10T07:46:45;6.85;;;6.22;;
53710;SDS011;39605;52.704;6.752;2023-05-10T07:49:12;6.70;;;6.10;;
53710;SDS011;39605;52.704;6.752;2023-05-10T07:51:38;6.68;;;5.97;;
53710;SDS011;39605;52.704;6.752;2023-05-10T07:54:04;6.80;;;6.15;;
53710;SDS011;39605;52.704;6.752;2023-05-10T07:56:31;7.18;;;6.53;;
53710;SDS011;39605;52.704;6.752;2023-05-10T07:59:02;6.45;;;5.97;;
53710;SDS011;39605;52.704;6.752;2023-05-10T08:01:32;7.25;;;5.55;;
53710;SDS011;39605;52.704;6.752;2023-05-10T08:03:58;5.72;;;4.22;;
53710;SDS011;39605;52.704;6.752;2023-05-10T08:06:25;5.95;;;5.50;;
53710;SDS011;39605;52.704;6.752;2023-05-10T08:08:53;6.43;;;5.80;;
53710;SDS011;39605;52.704;6.752;2023-05-10T08:11:20;6.20;;;5.45;;
53710;SDS011;39605;52.704;6.752;2023-05-10T08:13:46;5.85;;;5.10;;
53710;SDS011;39605;52.704;6.752;2023-05-10T08:16:12;5.47;;;4.90;;
53710;SDS011;39605;52.704;6.752;2023-05-10T08:18:38;4.05;;;3.75;;
53710;SDS011;39605;52.704;6.752;2023-05-10T08:21:05;4.40;;;3.92;;
53710;SDS011;39605;52.704;6.752;2023-05-10T08:23:32;4.55;;;4.25;;
53710;SDS011;39605;52.704;6.752;2023-05-10T08:26:19;4.00;;;3.72;;
53710;SDS011;39605;52.704;6.752;2023-05-10T08:28:47;3.90;;;3.60;;
53710;SDS011;39605;52.704;6.752;2023-05-10T08:31:13;4.95;;;4.22;;
53710;SDS011;39605;52.704;6.752;2023-05-10T08:33:39;3.45;;;2.97;;
53710;SDS011;39605;52.704;6.752;2023-05-10T08:36:05;2.45;;;2.25;;
53710;SDS011;39605;52.704;6.752;2023-05-10T08:38:31;3.15;;;2.85;;
53710;SDS011;39605;52.704;6.752;2023-05-10T08:40:58;2.50;;;2.30;;
53710;SDS011;39605;52.704;6.752;2023-05-10T08:43:26;4.25;;;3.85;;
53710;SDS011;39605;52.704;6.752;2023-05-10T08:45:54;4.22;;;3.95;;
53710;SDS011;39605;52.704;6.752;2023-05-10T08:48:26;4.82;;;4.03;;
53710;SDS011;39605;52.704;6.752;2023-05-10T08:50:54;4.50;;;4.10;;
53710;SDS011;39605;52.704;6.752;2023-05-10T08:53:23;3.67;;;3.38;;
53710;SDS011;39605;52.704;6.752;2023-05-10T08:55:51;3.08;;;2.72;;
53710;SDS011;39605;52.704;6.752;2023-05-10T08:58:20;2.30;;;2.10;;
53710;SDS011;39605;52.704;6.752;2023-05-10T09:00:48;1.95;;;1.85;;
53710;SDS011;39605;52.704;6.752;2023-05-10T09:03:15;1.02;;;0.93;;
53710;SDS011;39605;52.704;6.752;2023-05-10T09:05:42;1.77;;;1.35;;
53710;SDS011;39605;52.704;6.752;2023-05-10T09:08:09;1.45;;;1.35;;
53710;SDS011;39605;52.704;6.752;2023-05-10T09:10:37;1.70;;;1.60;;
53710;SDS011;39605;52.704;6.752;2023-05-10T09:13:08;1.50;;;1.00;;
53710;SDS011;39605;52.704;6.752;2023-05-10T09:15:36;1.60;;;0.65;;
53710;SDS011;39605;52.704;6.752;2023-05-10T09:18:02;0.70;;;0.50;;
53710;SDS011;39605;52.704;6.752;2023-05-10T09:20:30;2.72;;;0.93;;
53710;SDS011;39605;52.704;6.752;2023-05-10T09:22:58;1.45;;;1.08;;
53710;SDS011;39605;52.704;6.752;2023-05-10T09:25:25;1.45;;;0.77;;
53710;SDS011;39605;52.704;6.752;2023-05-10T09:27:51;0.80;;;0.70;;
53710;SDS011;39605;52.704;6.752;2023-05-10T09:32:50;1.10;;;1.00;;
53710;SDS011;39605;52.704;6.752;2023-05-10T09:35:17;1.80;;;0.60;;
53710;SDS011;39605;52.704;6.752;2023-05-10T09:37:45;1.13;;;1.02;;
53710;SDS011;39605;52.704;6.752;2023-05-10T09:40:13;0.95;;;0.80;;
53710;SDS011;39605;52.704;6.752;2023-05-10T09:42:41;1.10;;;0.70;;
53710;SDS011;39605;52.704;6.752;2023-05-10T09:45:08;1.35;;;0.80;;
53710;SDS011;39605;52.704;6.752;2023-05-10T09:47:39;1.80;;;0.70;;
53710;SDS011;39605;52.704;6.752;2023-05-10T09:50:05;1.52;;;1.10;;
53710;SDS011;39605;52.704;6.752;2023-05-10T09:55:13;1.00;;;0.90;;
53710;SDS011;39605;52.704;6.752;2023-05-10T09:57:39;2.40;;;0.73;;
53710;SDS011;39605;52.704;6.752;2023-05-10T10:00:06;1.63;;;1.30;;
53710;SDS011;39605;52.704;6.752;2023-05-10T10:02:32;1.33;;;1.15;;
53710;SDS011;39605;52.704;6.752;2023-05-10T10:05:01;1.80;;;1.65;;
53710;SDS011;39605;52.704;6.752;2023-05-10T10:07:30;1.92;;;1.83;;
53710;SDS011;39605;52.704;6.752;2023-05-10T10:09:57;2.70;;;1.85;;
53710;SDS011;39605;52.704;6.752;2023-05-10T10:12:24;2.35;;;2.15;;
53710;SDS011;39605;52.704;6.752;2023-05-10T10:14:51;2.38;;;2.20;;
53710;SDS011;39605;52.704;6.752;2023-05-10T10:17:18;2.03;;;1.80;;
53710;SDS011;39605;52.704;6.752;2023-05-10T10:19:45;2.25;;;2.08;;
53710;SDS011;39605;52.704;6.752;2023-05-10T10:22:11;2.17;;;2.08;;
53710;SDS011;39605;52.704;6.752;2023-05-10T10:24:40;3.88;;;2.25;;
53710;SDS011;39605;52.704;6.752;2023-05-10T10:27:15;2.38;;;2.10;;
53710;SDS011;39605;52.704;6.752;2023-05-10T10:30:01;2.22;;;2.08;;
53710;SDS011;39605;52.704;6.752;2023-05-10T10:32:33;3.55;;;2.88;;
53710;SDS011;39605;52.704;6.752;2023-05-10T10:35:31;2.60;;;2.40;;
53710;SDS011;39605;52.704;6.752;2023-05-10T10:38:01;2.83;;;2.63;;
53710;SDS011;39605;52.704;6.752;2023-05-10T10:40:29;3.72;;;3.42;;
53710;SDS011;39605;52.704;6.752;2023-05-10T10:42:55;3.00;;;2.70;;
53710;SDS011;39605;52.704;6.752;2023-05-10T10:45:23;4.10;;;3.80;;
53710;SDS011;39605;52.704;6.752;2023-05-10T10:47:53;3.85;;;3.65;;
53710;SDS011;39605;52.704;6.752;2023-05-10T10:50:43;3.30;;;3.08;;
53710;SDS011;39605;52.704;6.752;2023-05-10T10:53:10;3.78;;;3.58;;
53710;SDS011;39605;52.704;6.752;2023-05-10T10:55:44;3.85;;;3.65;;
53710;SDS011;39605;52.704;6.752;2023-05-10T10:58:10;3.67;;;3.38;;
53710;SDS011;39605;52.704;6.752;2023-05-10T11:00:37;4.60;;;4.25;;
53710;SDS011;39605;52.704;6.752;2023-05-10T11:03:05;4.22;;;3.90;;
53710;SDS011;39605;52.704;6.752;2023-05-10T11:08:11;4.65;;;4.35;;
53710;SDS011;39605;52.704;6.752;2023-05-10T11:10:38;4.60;;;4.20;;
53710;SDS011;39605;52.704;6.752;2023-05-10T11:13:08;5.30;;;4.90;;
53710;SDS011;39605;52.704;6.752;2023-05-10T11:15:35;5.72;;;5.32;;
53710;SDS011;39605;52.704;6.752;2023-05-10T11:18:17;5.63;;;5.13;;
53710;SDS011;39605;52.704;6.752;2023-05-10T11:20:44;5.75;;;5.40;;
53710;SDS011;39605;52.704;6.752;2023-05-10T11:23:12;7.28;;;6.68;;
53710;SDS011;39605;52.704;6.752;2023-05-10T11:25:44;6.70;;;6.18;;
53710;SDS011;39605;52.704;6.752;2023-05-10T11:28:13;7.22;;;6.72;;
53710;SDS011;39605;52.704;6.752;2023-05-10T11:30:39;7.68;;;7.00;;
53710;SDS011;39605;52.704;6.752;2023-05-10T11:33:06;7.63;;;6.97;;
53710;SDS011;39605;52.704;6.752;2023-05-10T11:35:38;7.68;;;7.18;;
53710;SDS011;39605;52.704;6.752;2023-05-10T11:38:06;7.07;;;6.57;;
53710;SDS011;39605;52.704;6.752;2023-05-10T11:40:32;6.78;;;6.22;;
53710;SDS011;39605;52.704;6.752;2023-05-10T11:42:58;6.93;;;6.43;;
53710;SDS011;39605;52.704;6.752;2023-05-10T11:45:24;6.93;;;6.43;;
53710;SDS011;39605;52.704;6.752;2023-05-10T11:47:51;6.82;;;6.22;;
53710;SDS011;39605;52.704;6.752;2023-05-10T11:50:17;7.82;;;7.13;;
53710;SDS011;39605;52.704;6.752;2023-05-10T11:52:43;6.63;;;6.13;;
53710;SDS011;39605;52.704;6.752;2023-05-10T11:55:10;6.20;;;5.70;;
53710;SDS011;39605;52.704;6.752;2023-05-10T11:57:36;6.50;;;6.00;;
53710;SDS011;39605;52.704;6.752;2023-05-10T12:00:04;6.80;;;6.28;;
53710;SDS011;39605;52.704;6.752;2023-05-10T12:02:31;6.68;;;6.25;;
53710;SDS011;39605;52.704;6.752;2023-05-10T12:04:57;7.10;;;6.60;;
53710;SDS011;39605;52.704;6.752;2023-05-10T12:07:29;7.68;;;7.07;;
53710;SDS011;39605;52.704;6.752;2023-05-10T12:10:07;7.18;;;6.68;;
53710;SDS011;39605;52.704;6.752;2023-05-10T12:15:12;7.43;;;6.70;;
53710;SDS011;39605;52.704;6.752;2023-05-10T12:17:43;7.57;;;6.85;;
53710;SDS011;39605;52.704;6.752;2023-05-10T12:20:13;7.25;;;6.75;;
53710;SDS011;39605;52.704;6.752;2023-05-10T12:22:43;8.38;;;7.70;;
53710;SDS011;39605;52.704;6.752;2023-05-10T12:25:11;7.38;;;6.80;;
53710;SDS011;39605;52.704;6.752;2023-05-10T12:27:37;7.30;;;6.72;;
53710;SDS011;39605;52.704;6.752;2023-05-10T12:30:04;7.22;;;6.63;;
53710;SDS011;39605;52.704;6.752;2023-05-10T12:32:37;7.28;;;6.68;;
53710;SDS011;39605;52.704;6.752;2023-05-10T12:35:04;7.60;;;7.10;;
53710;SDS011;39605;52.704;6.752;2023-05-10T12:37:31;7.43;;;6.82;;
53710;SDS011;39605;52.704;6.752;2023-05-10T12:40:00;8.65;;;7.63;;
53710;SDS011;39605;52.704;6.752;2023-05-10T12:42:28;6.95;;;6.32;;
53710;SDS011;39605;52.704;6.752;2023-05-10T12:44:55;6.10;;;5.70;;
53710;SDS011;39605;52.704;6.752;2023-05-10T12:47:21;6.57;;;6.10;;
53710;SDS011;39605;52.704;6.752;2023-05-10T12:49:48;6.72;;;6.20;;
53710;SDS011;39605;52.704;6.752;2023-05-10T12:52:14;6.78;;;6.28;;
53710;SDS011;39605;52.704;6.752;2023-05-10T12:54:40;7.75;;;7.15;;
53710;SDS011;39605;52.704;6.752;2023-05-10T12:57:06;7.20;;;6.68;;
53710;SDS011;39605;52.704;6.752;2023-05-10T12:59:32;7.43;;;6.82;;
53710;SDS011;39605;52.704;6.752;2023-05-10T13:01:58;8.70;;;7.95;;
53710;SDS011;39605;52.704;6.752;2023-05-10T13:04:24;8.15;;;7.45;;
53710;SDS011;39605;52.704;6.752;2023-05-10T13:06:50;7.68;;;7.15;;
53710;SDS011;39605;52.704;6.752;2023-05-10T13:09:16;7.28;;;6.65;;
53710;SDS011;39605;52.704;6.752;2023-05-10T13:11:42;7.43;;;6.82;;
53710;SDS011;39605;52.704;6.752;2023-05-10T13:14:09;7.22;;;6.80;;
53710;SDS011;39605;52.704;6.752;2023-05-10T13:16:35;6.75;;;6.25;;
53710;SDS011;39605;52.704;6.752;2023-05-10T13:19:01;4.88;;;4.57;;
53710;SDS011;39605;52.704;6.752;2023-05-10T13:21:28;3.45;;;3.15;;
53710;SDS011;39605;52.704;6.752;2023-05-10T13:23:54;2.63;;;1.92;;
53710;SDS011;39605;52.704;6.752;2023-05-10T13:26:20;2.95;;;2.00;;
53710;SDS011;39605;52.704;6.752;2023-05-10T13:28:52;2.10;;;1.92;;
53710;SDS011;39605;52.704;6.752;2023-05-10T13:31:20;2.23;;;2.13;;
53710;SDS011;39605;52.704;6.752;2023-05-10T13:33:49;3.95;;;1.80;;
53710;SDS011;39605;52.704;6.752;2023-05-10T13:36:15;2.92;;;2.50;;
53710;SDS011;39605;52.704;6.752;2023-05-10T13:38:41;3.90;;;2.45;;
53710;SDS011;39605;52.704;6.752;2023-05-10T13:41:07;2.97;;;2.60;;
53710;SDS011;39605;52.704;6.752;2023-05-10T13:43:36;2.92;;;1.98;;
53710;SDS011;39605;52.704;6.752;2023-05-10T13:46:02;3.55;;;1.60;;
53710;SDS011;39605;52.704;6.752;2023-05-10T13:48:28;2.50;;;1.63;;
53710;SDS011;39605;52.704;6.752;2023-05-10T13:50:54;2.40;;;2.20;;
53710;SDS011;39605;52.704;6.752;2023-05-10T13:53:21;3.17;;;2.97;;
53710;SDS011;39605;52.704;6.752;2023-05-10T13:55:49;4.15;;;3.85;;
53710;SDS011;39605;52.704;6.752;2023-05-10T13:58:18;3.97;;;3.70;;
53710;SDS011;39605;52.704;6.752;2023-05-10T14:00:44;5.70;;;5.20;;
53710;SDS011;39605;52.704;6.752;2023-05-10T14:03:10;7.57;;;5.70;;
53710;SDS011;39605;52.704;6.752;2023-05-10T14:05:36;6.47;;;6.03;;
53710;SDS011;39605;52.704;6.752;2023-05-10T14:08:02;6.88;;;6.47;;
53710;SDS011;39605;52.704;6.752;2023-05-10T14:10:29;7.10;;;6.60;;
53710;SDS011;39605;52.704;6.752;2023-05-10T14:12:55;8.20;;;7.50;;
53710;SDS011;39605;52.704;6.752;2023-05-10T14:15:21;7.93;;;7.28;;
53710;SDS011;39605;52.704;6.752;2023-05-10T14:17:53;7.78;;;7.07;;
53710;SDS011;39605;52.704;6.752;2023-05-10T14:20:26;7.03;;;6.43;;
53710;SDS011;39605;52.704;6.752;2023-05-10T14:22:55;9.55;;;8.57;;
53710;SDS011;39605;52.704;6.752;2023-05-10T14:25:23;9.20;;;8.25;;
53710;SDS011;39605;52.704;6.752;2023-05-10T14:27:52;9.52;;;8.73;;
53710;SDS011;39605;52.704;6.752;2023-05-10T14:30:22;10.18;;;9.18;;
53710;SDS011;39605;52.704;6.752;2023-05-10T14:32:51;9.20;;;8.40;;
53710;SDS011;39605;52.704;6.752;2023-05-10T14:35:19;9.45;;;8.68;;
53710;SDS011;39605;52.704;6.752;2023-05-10T14:37:45;10.18;;;9.27;;
53710;SDS011;39605;52.704;6.752;2023-05-10T14:40:11;9.98;;;8.93;;
53710;SDS011;39605;52.704;6.752;2023-05-10T14:42:45;9.43;;;8.63;;
53710;SDS011;39605;52.704;6.752;2023-05-10T14:45:11;9.45;;;8.55;;
53710;SDS011;39605;52.704;6.752;2023-05-10T14:47:37;9.32;;;8.60;;
53710;SDS011;39605;52.704;6.752;2023-05-10T14:50:03;11.02;;;9.95;;
53710;SDS011;39605;52.704;6.752;2023-05-10T14:52:30;10.98;;;9.90;;
53710;SDS011;39605;52.704;6.752;2023-05-10T14:54:58;10.77;;;9.93;;
53710;SDS011;39605;52.704;6.752;2023-05-10T14:57:31;10.30;;;9.38;;
53710;SDS011;39605;52.704;6.752;2023-05-10T15:00:15;10.60;;;9.70;;
53710;SDS011;39605;52.704;6.752;2023-05-10T15:02:51;9.90;;;9.00;;
53710;SDS011;39605;52.704;6.752;2023-05-10T15:05:35;9.57;;;8.65;;
53710;SDS011;39605;52.704;6.752;2023-05-10T15:08:03;10.55;;;9.52;;
53710;SDS011;39605;52.704;6.752;2023-05-10T15:10:32;9.60;;;8.90;;
53710;SDS011;39605;52.704;6.752;2023-05-10T15:12:58;9.85;;;9.02;;
53710;SDS011;39605;52.704;6.752;2023-05-10T15:15:25;9.48;;;8.55;;
53710;SDS011;39605;52.704;6.752;2023-05-10T15:17:53;9.18;;;8.27;;